sensor_id;sensor_type;location;lat;lon;timestamp;pressure;altitude;pressure_sealevel;temperature;humidity
6615;BME280;3343;42.896;23.912;2023-02-18T00:00:55;97194.34;;;6.33;71.70
6615;BME280;3343;42.896;23.912;2023-02-18T00:03:22;97189.78;;;6.63;70.03
6615;BME280;3343;42.896;23.912;2023-02-18T00:05:49;97168.56;;;6.38;70.98
6615;BME280;3343;42.896;23.912;2023-02-18T00:08:17;97179.91;;;6.75;70.45
6615;BME280;3343;42.896;23.912;2023-02-18T00:10:44;97174.69;;;6.75;69.76
6615;BME280;3343;42.896;23.912;2023-02-18T00:13:11;97163.81;;;7.15;68.72
6615;BME280;3343;42.896;23.912;2023-02-18T00:15:38;97162.69;;;7.17;67.83
6615;BME280;3343;42.896;23.912;2023-02-18T00:18:05;97169.81;;;7.51;65.53
6615;BME280;3343;42.896;23.912;2023-02-18T00:20:33;97161.31;;;7.31;65.48
6615;BME280;3343;42.896;23.912;2023-02-18T00:23:00;97158.78;;;7.21;65.62
6615;BME280;3343;42.896;23.912;2023-02-18T00:25:29;97146.06;;;6.73;69.40
6615;BME280;3343;42.896;23.912;2023-02-18T00:27:56;97141.34;;;6.77;69.98
6615;BME280;3343;42.896;23.912;2023-02-18T00:30:22;97147.00;;;6.99;68.20
6615;BME280;3343;42.896;23.912;2023-02-18T00:32:49;97155.31;;;6.67;70.68
6615;BME280;3343;42.896;23.912;2023-02-18T00:35:16;97152.97;;;6.47;70.95
6615;BME280;3343;42.896;23.912;2023-02-18T00:37:43;97141.56;;;6.48;71.91
6615;BME280;3343;42.896;23.912;2023-02-18T00:40:11;97155.56;;;6.92;70.46
6615;BME280;3343;42.896;23.912;2023-02-18T00:42:39;97153.66;;;6.94;69.01
6615;BME280;3343;42.896;23.912;2023-02-18T00:45:07;97144.38;;;6.36;72.93
6615;BME280;3343;42.896;23.912;2023-02-18T00:47:34;97146.31;;;6.34;74.12
6615;BME280;3343;42.896;23.912;2023-02-18T00:50:01;97141.94;;;6.53;72.96
6615;BME280;3343;42.896;23.912;2023-02-18T00:52:27;97144.91;;;7.03;69.71
6615;BME280;3343;42.896;23.912;2023-02-18T00:54:54;97144.81;;;7.13;68.23
6615;BME280;3343;42.896;23.912;2023-02-18T00:57:21;97144.88;;;7.21;67.90
6615;BME280;3343;42.896;23.912;2023-02-18T00:59:50;97144.50;;;7.33;67.79
6615;BME280;3343;42.896;23.912;2023-02-18T01:02:17;97142.88;;;7.15;66.96
6615;BME280;3343;42.896;23.912;2023-02-18T01:04:44;97138.03;;;7.02;68.03
6615;BME280;3343;42.896;23.912;2023-02-18T01:07:11;97151.56;;;6.97;68.49
6615;BME280;3343;42.896;23.912;2023-02-18T01:09:37;97152.38;;;6.98;68.15
6615;BME280;3343;42.896;23.912;2023-02-18T01:12:05;97145.06;;;7.01;68.32
6615;BME280;3343;42.896;23.912;2023-02-18T01:14:32;97145.25;;;5.90;73.23
6615;BME280;3343;42.896;23.912;2023-02-18T01:17:00;97136.84;;;5.87;74.42
6615;BME280;3343;42.896;23.912;2023-02-18T01:19:27;97138.00;;;5.74;75.83
6615;BME280;3343;42.896;23.912;2023-02-18T01:21:53;97135.00;;;6.06;74.16
6615;BME280;3343;42.896;23.912;2023-02-18T01:24:20;97137.56;;;6.26;72.76
6615;BME280;3343;42.896;23.912;2023-02-18T01:26:47;97129.19;;;6.22;73.32
6615;BME280;3343;42.896;23.912;2023-02-18T01:29:14;97128.03;;;5.97;74.85
6615;BME280;3343;42.896;23.912;2023-02-18T01:31:41;97125.00;;;6.02;74.97
6615;BME280;3343;42.896;23.912;2023-02-18T01:34:09;97128.94;;;6.61;72.43
6615;BME280;3343;42.896;23.912;2023-02-18T01:36:36;97128.09;;;5.78;75.11
6615;BME280;3343;42.896;23.912;2023-02-18T01:39:03;97129.63;;;6.18;74.33
6615;BME280;3343;42.896;23.912;2023-02-18T01:41:30;97111.09;;;6.11;74.46
6615;BME280;3343;42.896;23.912;2023-02-18T01:44:14;97127.75;;;6.55;72.19
6615;BME280;3343;42.896;23.912;2023-02-18T01:46:41;97121.03;;;5.98;74.77
6615;BME280;3343;42.896;23.912;2023-02-18T01:49:12;97123.84;;;6.14;75.04
6615;BME280;3343;42.896;23.912;2023-02-18T01:51:43;97129.75;;;6.44;73.89
6615;BME280;3343;42.896;23.912;2023-02-18T01:54:15;97113.84;;;6.72;72.00
6615;BME280;3343;42.896;23.912;2023-02-18T01:56:47;97129.47;;;6.82;71.15
6615;BME280;3343;42.896;23.912;2023-02-18T01:59:20;97121.88;;;7.07;70.35
6615;BME280;3343;42.896;23.912;2023-02-18T02:01:50;97129.97;;;6.50;73.23
6615;BME280;3343;42.896;23.912;2023-02-18T02:04:19;97127.00;;;6.18;74.26
6615;BME280;3343;42.896;23.912;2023-02-18T02:06:46;97123.09;;;5.94;76.36
6615;BME280;3343;42.896;23.912;2023-02-18T02:09:16;97116.06;;;6.32;75.23
6615;BME280;3343;42.896;23.912;2023-02-18T02:14:59;97108.09;;;6.69;73.15
6615;BME280;3343;42.896;23.912;2023-02-18T02:17:40;97118.78;;;6.76;73.13
6615;BME280;3343;42.896;23.912;2023-02-18T02:26:49;97097.25;;;6.82;71.49
6615;BME280;3343;42.896;23.912;2023-02-18T02:29:48;97111.22;;;6.55;74.63
6615;BME280;3343;42.896;23.912;2023-02-18T02:35:20;97078.59;;;6.59;75.26
6615;BME280;3343;42.896;23.912;2023-02-18T02:37:53;97101.59;;;7.09;72.62
6615;BME280;3343;42.896;23.912;2023-02-18T02:40:25;97088.31;;;7.28;71.70
6615;BME280;3343;42.896;23.912;2023-02-18T02:43:05;97092.34;;;7.40;70.34
6615;BME280;3343;42.896;23.912;2023-02-18T02:45:46;97104.03;;;7.54;69.76
6615;BME280;3343;42.896;23.912;2023-02-18T02:48:20;97098.56;;;7.73;68.60
6615;BME280;3343;42.896;23.912;2023-02-18T02:50:53;97099.66;;;7.11;72.02
6615;BME280;3343;42.896;23.912;2023-02-18T02:53:29;97106.63;;;7.02;72.52
6615;BME280;3343;42.896;23.912;2023-02-18T02:55:57;97102.09;;;7.30;70.82
6615;BME280;3343;42.896;23.912;2023-02-18T02:58:23;97100.41;;;7.03;71.35
6615;BME280;3343;42.896;23.912;2023-02-18T03:01:09;97108.75;;;7.50;69.86
6615;BME280;3343;42.896;23.912;2023-02-18T03:06:51;97108.00;;;7.32;71.88
6615;BME280;3343;42.896;23.912;2023-02-18T03:09:29;97107.53;;;7.62;69.67
6615;BME280;3343;42.896;23.912;2023-02-18T03:12:07;97109.72;;;7.75;68.78
6615;BME280;3343;42.896;23.912;2023-02-18T03:14:44;97116.25;;;7.45;69.19
6615;BME280;3343;42.896;23.912;2023-02-18T03:17:19;97117.53;;;6.97;72.06
6615;BME280;3343;42.896;23.912;2023-02-18T03:19:54;97114.16;;;7.05;73.03
6615;BME280;3343;42.896;23.912;2023-02-18T03:22:26;97114.31;;;7.47;70.44
6615;BME280;3343;42.896;23.912;2023-02-18T03:24:56;97116.16;;;7.55;69.97
6615;BME280;3343;42.896;23.912;2023-02-18T03:27:26;97122.16;;;7.21;70.93
6615;BME280;3343;42.896;23.912;2023-02-18T03:29:58;97121.66;;;7.00;73.21
6615;BME280;3343;42.896;23.912;2023-02-18T03:32:26;97123.78;;;6.69;74.52
6615;BME280;3343;42.896;23.912;2023-02-18T03:35:08;97123.28;;;7.01;74.18
6615;BME280;3343;42.896;23.912;2023-02-18T03:37:41;97126.47;;;7.30;72.50
6615;BME280;3343;42.896;23.912;2023-02-18T03:40:11;97128.66;;;7.17;72.10
6615;BME280;3343;42.896;23.912;2023-02-18T03:42:38;97123.78;;;6.69;73.96
6615;BME280;3343;42.896;23.912;2023-02-18T03:45:05;97126.63;;;6.58;75.70
6615;BME280;3343;42.896;23.912;2023-02-18T03:47:32;97124.13;;;7.01;73.99
6615;BME280;3343;42.896;23.912;2023-02-18T03:49:59;97126.00;;;7.35;71.63
6615;BME280;3343;42.896;23.912;2023-02-18T03:52:26;97132.47;;;7.23;71.50
6615;BME280;3343;42.896;23.912;2023-02-18T03:54:55;97126.22;;;7.67;69.80
6615;BME280;3343;42.896;23.912;2023-02-18T03:57:22;97140.50;;;6.41;76.49
6615;BME280;3343;42.896;23.912;2023-02-18T03:59:49;97132.47;;;6.87;74.68
6615;BME280;3343;42.896;23.912;2023-02-18T04:02:16;97118.19;;;6.82;73.93
6615;BME280;3343;42.896;23.912;2023-02-18T04:04:42;97107.16;;;6.25;77.15
6615;BME280;3343;42.896;23.912;2023-02-18T04:07:09;97110.97;;;6.30;77.46
6615;BME280;3343;42.896;23.912;2023-02-18T04:09:36;97107.34;;;6.59;77.44
6615;BME280;3343;42.896;23.912;2023-02-18T04:12:05;97088.13;;;7.21;74.18
6615;BME280;3343;42.896;23.912;2023-02-18T04:14:32;97101.44;;;7.10;73.37
6615;BME280;3343;42.896;23.912;2023-02-18T04:16:59;97094.16;;;7.22;72.21
6615;BME280;3343;42.896;23.912;2023-02-18T04:19:26;97093.66;;;7.44;71.57
6615;BME280;3343;42.896;23.912;2023-02-18T04:21:53;97094.81;;;6.98;73.88
6615;BME280;3343;42.896;23.912;2023-02-18T04:24:19;97083.72;;;6.86;74.29
6615;BME280;3343;42.896;23.912;2023-02-18T04:26:46;97083.13;;;6.57;76.52
6615;BME280;3343;42.896;23.912;2023-02-18T04:29:14;97086.72;;;7.09;74.70
6615;BME280;3343;42.896;23.912;2023-02-18T04:31:41;97082.06;;;7.21;73.25
6615;BME280;3343;42.896;23.912;2023-02-18T04:34:08;97090.06;;;7.19;72.53
6615;BME280;3343;42.896;23.912;2023-02-18T04:36:35;97082.69;;;6.79;74.72
6615;BME280;3343;42.896;23.912;2023-02-18T04:39:02;97067.59;;;6.55;75.96
6615;BME280;3343;42.896;23.912;2023-02-18T04:41:29;97095.16;;;6.67;75.95
6615;BME280;3343;42.896;23.912;2023-02-18T04:43:56;97080.03;;;6.08;78.55
6615;BME280;3343;42.896;23.912;2023-02-18T04:46:25;97087.53;;;6.38;78.71
6615;BME280;3343;42.896;23.912;2023-02-18T04:48:52;97084.94;;;6.74;76.70
6615;BME280;3343;42.896;23.912;2023-02-18T04:51:19;97068.31;;;7.19;74.31
6615;BME280;3343;42.896;23.912;2023-02-18T04:53:46;97072.34;;;7.13;73.98
6615;BME280;3343;42.896;23.912;2023-02-18T04:56:14;97081.53;;;7.69;72.64
6615;BME280;3343;42.896;23.912;2023-02-18T04:58:41;97080.41;;;7.20;73.90
6615;BME280;3343;42.896;23.912;2023-02-18T05:01:08;97081.53;;;7.17;74.61
6615;BME280;3343;42.896;23.912;2023-02-18T05:03:36;97077.66;;;7.47;73.42
6615;BME280;3343;42.896;23.912;2023-02-18T05:06:03;97073.47;;;7.11;74.90
6615;BME280;3343;42.896;23.912;2023-02-18T05:08:30;97063.31;;;6.90;76.64
6615;BME280;3343;42.896;23.912;2023-02-18T05:10:56;97054.94;;;7.04;76.32
6615;BME280;3343;42.896;23.912;2023-02-18T05:13:23;97068.47;;;7.43;75.96
6615;BME280;3343;42.896;23.912;2023-02-18T05:15:51;97066.44;;;7.63;74.76
6615;BME280;3343;42.896;23.912;2023-02-18T05:18:18;97083.94;;;7.88;72.51
6615;BME280;3343;42.896;23.912;2023-02-18T05:20:46;97073.03;;;8.09;71.13
6615;BME280;3343;42.896;23.912;2023-02-18T05:23:13;97083.78;;;7.90;71.30
6615;BME280;3343;42.896;23.912;2023-02-18T05:25:40;97086.41;;;7.64;73.13
6615;BME280;3343;42.896;23.912;2023-02-18T05:28:07;97094.19;;;7.48;74.83
6615;BME280;3343;42.896;23.912;2023-02-18T05:30:34;97086.69;;;7.53;74.79
6615;BME280;3343;42.896;23.912;2023-02-18T05:33:00;97090.63;;;7.31;75.62
6615;BME280;3343;42.896;23.912;2023-02-18T05:35:27;97087.72;;;7.34;76.36
6615;BME280;3343;42.896;23.912;2023-02-18T05:37:56;97086.56;;;7.11;78.20
6615;BME280;3343;42.896;23.912;2023-02-18T05:40:23;97084.50;;;6.96;79.13
6615;BME280;3343;42.896;23.912;2023-02-18T05:42:49;97074.63;;;7.34;77.84
6615;BME280;3343;42.896;23.912;2023-02-18T05:45:16;97075.00;;;8.07;74.21
6615;BME280;3343;42.896;23.912;2023-02-18T05:47:43;97064.97;;;8.45;71.51
6615;BME280;3343;42.896;23.912;2023-02-18T05:50:10;97065.00;;;8.61;69.95
6615;BME280;3343;42.896;23.912;2023-02-18T05:52:37;97054.06;;;8.82;69.58
6615;BME280;3343;42.896;23.912;2023-02-18T05:55:06;97053.22;;;9.06;68.13
6615;BME280;3343;42.896;23.912;2023-02-18T05:57:33;97056.34;;;9.17;67.70
6615;BME280;3343;42.896;23.912;2023-02-18T06:00:01;97061.28;;;9.04;68.46
6615;BME280;3343;42.896;23.912;2023-02-18T06:02:28;97064.31;;;8.35;71.16
6615;BME280;3343;42.896;23.912;2023-02-18T06:04:55;97056.47;;;8.51;71.24
6615;BME280;3343;42.896;23.912;2023-02-18T06:07:22;97063.66;;;8.49;72.85
6615;BME280;3343;42.896;23.912;2023-02-18T06:09:49;97067.31;;;8.64;71.39
6615;BME280;3343;42.896;23.912;2023-02-18T06:12:17;97061.94;;;8.74;71.52
6615;BME280;3343;42.896;23.912;2023-02-18T06:14:44;97062.03;;;8.48;72.55
6615;BME280;3343;42.896;23.912;2023-02-18T06:17:12;97068.34;;;8.87;71.81
6615;BME280;3343;42.896;23.912;2023-02-18T06:19:39;97057.59;;;9.46;69.87
6615;BME280;3343;42.896;23.912;2023-02-18T06:22:06;97062.50;;;10.12;66.59
6615;BME280;3343;42.896;23.912;2023-02-18T06:24:33;97070.34;;;10.29;65.13
6615;BME280;3343;42.896;23.912;2023-02-18T06:27:00;97072.16;;;10.59;64.46
6615;BME280;3343;42.896;23.912;2023-02-18T06:29:28;97073.72;;;10.45;64.48
6615;BME280;3343;42.896;23.912;2023-02-18T06:31:55;97073.84;;;10.52;64.08
6615;BME280;3343;42.896;23.912;2023-02-18T06:34:22;97059.25;;;10.72;63.42
6615;BME280;3343;42.896;23.912;2023-02-18T06:36:49;97067.16;;;10.41;64.30
6615;BME280;3343;42.896;23.912;2023-02-18T06:39:16;97066.59;;;10.77;64.36
6615;BME280;3343;42.896;23.912;2023-02-18T06:41:43;97076.38;;;10.91;64.53
6615;BME280;3343;42.896;23.912;2023-02-18T06:44:10;97078.88;;;10.62;65.45
6615;BME280;3343;42.896;23.912;2023-02-18T06:46:41;97080.81;;;10.37;68.07
6615;BME280;3343;42.896;23.912;2023-02-18T06:49:07;97079.59;;;10.78;67.86
6615;BME280;3343;42.896;23.912;2023-02-18T06:51:34;97072.88;;;10.99;65.62
6615;BME280;3343;42.896;23.912;2023-02-18T06:54:01;97080.19;;;11.26;62.93
6615;BME280;3343;42.896;23.912;2023-02-18T06:56:28;97058.31;;;11.93;59.37
6615;BME280;3343;42.896;23.912;2023-02-18T06:58:55;97066.09;;;12.45;56.65
6615;BME280;3343;42.896;23.912;2023-02-18T07:01:22;97060.69;;;12.74;57.29
6615;BME280;3343;42.896;23.912;2023-02-18T07:03:50;97066.03;;;13.17;56.28
6615;BME280;3343;42.896;23.912;2023-02-18T07:06:17;97060.66;;;13.11;56.73
6615;BME280;3343;42.896;23.912;2023-02-18T07:08:44;97053.25;;;13.49;55.67
6615;BME280;3343;42.896;23.912;2023-02-18T07:11:10;97060.88;;;13.93;54.07
6615;BME280;3343;42.896;23.912;2023-02-18T07:13:37;97067.47;;;14.10;52.69
6615;BME280;3343;42.896;23.912;2023-02-18T07:16:04;97050.91;;;13.11;58.36
6615;BME280;3343;42.896;23.912;2023-02-18T07:18:31;97054.97;;;13.63;53.03
6615;BME280;3343;42.896;23.912;2023-02-18T07:21:00;97054.28;;;13.82;53.81
6615;BME280;3343;42.896;23.912;2023-02-18T07:23:27;97053.06;;;13.85;49.55
6615;BME280;3343;42.896;23.912;2023-02-18T07:26:02;97063.25;;;14.22;45.90
6615;BME280;3343;42.896;23.912;2023-02-18T07:28:28;97053.13;;;13.91;45.50
6615;BME280;3343;42.896;23.912;2023-02-18T07:30:55;97044.84;;;14.01;42.59
6615;BME280;3343;42.896;23.912;2023-02-18T07:33:22;97052.81;;;14.55;40.74
6615;BME280;3343;42.896;23.912;2023-02-18T07:35:52;97050.28;;;15.21;38.98
6615;BME280;3343;42.896;23.912;2023-02-18T07:38:21;97047.22;;;15.57;38.88
6615;BME280;3343;42.896;23.912;2023-02-18T07:40:48;97051.94;;;15.62;37.63
6615;BME280;3343;42.896;23.912;2023-02-18T07:43:14;97046.94;;;15.99;37.09
6615;BME280;3343;42.896;23.912;2023-02-18T07:45:42;97056.72;;;16.63;37.25
6615;BME280;3343;42.896;23.912;2023-02-18T07:48:09;97043.69;;;16.93;37.81
6615;BME280;3343;42.896;23.912;2023-02-18T07:50:38;97052.38;;;17.31;39.06
6615;BME280;3343;42.896;23.912;2023-02-18T07:53:05;97055.84;;;17.38;36.98
6615;BME280;3343;42.896;23.912;2023-02-18T07:55:35;97053.66;;;17.54;38.45
6615;BME280;3343;42.896;23.912;2023-02-18T07:58:18;97054.78;;;18.07;36.25
6615;BME280;3343;42.896;23.912;2023-02-18T08:00:45;97052.69;;;18.64;34.03
6615;BME280;3343;42.896;23.912;2023-02-18T08:03:14;97061.59;;;18.88;32.96
6615;BME280;3343;42.896;23.912;2023-02-18T08:05:41;97063.72;;;18.98;33.37
6615;BME280;3343;42.896;23.912;2023-02-18T08:08:11;97047.56;;;19.34;34.48
6615;BME280;3343;42.896;23.912;2023-02-18T08:10:39;97058.69;;;19.31;33.33
6615;BME280;3343;42.896;23.912;2023-02-18T08:13:06;97060.19;;;19.16;33.69
6615;BME280;3343;42.896;23.912;2023-02-18T08:15:33;97067.72;;;19.19;33.56
6615;BME280;3343;42.896;23.912;2023-02-18T08:18:00;97071.69;;;19.28;33.42
6615;BME280;3343;42.896;23.912;2023-02-18T08:20:27;97067.13;;;19.70;32.84
6615;BME280;3343;42.896;23.912;2023-02-18T08:22:54;97060.84;;;19.88;32.58
6615;BME280;3343;42.896;23.912;2023-02-18T08:25:21;97057.00;;;20.07;31.82
6615;BME280;3343;42.896;23.912;2023-02-18T08:27:49;97050.56;;;20.31;31.24
6615;BME280;3343;42.896;23.912;2023-02-18T08:30:16;97048.94;;;20.30;30.48
6615;BME280;3343;42.896;23.912;2023-02-18T08:32:43;97045.91;;;20.50;31.22
6615;BME280;3343;42.896;23.912;2023-02-18T08:35:11;97039.34;;;20.58;30.54
6615;BME280;3343;42.896;23.912;2023-02-18T08:37:38;97051.63;;;20.42;30.60
6615;BME280;3343;42.896;23.912;2023-02-18T08:40:06;97047.00;;;20.94;30.56
6615;BME280;3343;42.896;23.912;2023-02-18T08:42:33;97035.78;;;21.43;28.88
6615;BME280;3343;42.896;23.912;2023-02-18T08:45:02;97039.28;;;22.15;28.46
6615;BME280;3343;42.896;23.912;2023-02-18T08:47:28;97035.69;;;22.27;27.99
6615;BME280;3343;42.896;23.912;2023-02-18T08:49:55;97033.25;;;22.03;27.68
6615;BME280;3343;42.896;23.912;2023-02-18T08:52:22;97034.13;;;21.92;27.48
6615;BME280;3343;42.896;23.912;2023-02-18T08:54:49;97029.72;;;21.47;27.64
6615;BME280;3343;42.896;23.912;2023-02-18T08:57:16;97029.22;;;21.50;27.50
6615;BME280;3343;42.896;23.912;2023-02-18T08:59:43;97033.00;;;21.21;27.71
6615;BME280;3343;42.896;23.912;2023-02-18T09:02:12;97027.09;;;21.19;27.15
6615;BME280;3343;42.896;23.912;2023-02-18T09:04:39;97016.91;;;21.33;27.57
6615;BME280;3343;42.896;23.912;2023-02-18T09:07:06;97019.00;;;21.47;27.47
6615;BME280;3343;42.896;23.912;2023-02-18T09:09:33;97018.03;;;21.70;27.02
6615;BME280;3343;42.896;23.912;2023-02-18T09:12:00;97017.22;;;21.70;26.91
6615;BME280;3343;42.896;23.912;2023-02-18T09:14:27;97015.00;;;21.67;27.00
6615;BME280;3343;42.896;23.912;2023-02-18T09:16:55;97016.63;;;21.51;27.13
6615;BME280;3343;42.896;23.912;2023-02-18T09:19:24;97023.22;;;21.26;28.06
6615;BME280;3343;42.896;23.912;2023-02-18T09:21:51;97025.13;;;20.69;28.80
6615;BME280;3343;42.896;23.912;2023-02-18T09:24:18;97022.31;;;20.76;28.64
6615;BME280;3343;42.896;23.912;2023-02-18T09:26:45;97023.34;;;20.75;28.10
6615;BME280;3343;42.896;23.912;2023-02-18T09:29:11;97018.66;;;21.10;28.58
6615;BME280;3343;42.896;23.912;2023-02-18T09:31:38;97018.66;;;21.10;28.34
6615;BME280;3343;42.896;23.912;2023-02-18T09:34:05;97012.09;;;20.73;29.24
6615;BME280;3343;42.896;23.912;2023-02-18T09:36:33;97011.31;;;20.89;29.07
6615;BME280;3343;42.896;23.912;2023-02-18T09:39:00;97016.41;;;21.36;29.24
6615;BME280;3343;42.896;23.912;2023-02-18T09:41:35;97014.09;;;21.78;28.13
6615;BME280;3343;42.896;23.912;2023-02-18T09:44:06;97005.81;;;21.62;27.67
6615;BME280;3343;42.896;23.912;2023-02-18T09:46:38;97013.63;;;21.47;28.30
6615;BME280;3343;42.896;23.912;2023-02-18T09:49:13;97021.25;;;21.55;29.12
6615;BME280;3343;42.896;23.912;2023-02-18T09:51:42;97015.91;;;21.72;28.09
6615;BME280;3343;42.896;23.912;2023-02-18T09:54:10;97006.41;;;21.48;28.30
6615;BME280;3343;42.896;23.912;2023-02-18T09:56:38;97009.97;;;21.20;28.47
6615;BME280;3343;42.896;23.912;2023-02-18T09:59:12;97008.50;;;21.12;28.73
6615;BME280;3343;42.896;23.912;2023-02-18T10:01:40;97003.47;;;20.99;28.45
6615;BME280;3343;42.896;23.912;2023-02-18T10:04:12;97000.00;;;21.15;28.69
6615;BME280;3343;42.896;23.912;2023-02-18T10:06:43;97004.88;;;21.35;28.52
6615;BME280;3343;42.896;23.912;2023-02-18T10:09:17;97007.63;;;21.07;28.76
6615;BME280;3343;42.896;23.912;2023-02-18T10:11:48;97012.25;;;21.11;28.77
6615;BME280;3343;42.896;23.912;2023-02-18T10:14:17;96992.28;;;20.85;28.75
6615;BME280;3343;42.896;23.912;2023-02-18T10:16:45;96998.94;;;20.99;28.45
6615;BME280;3343;42.896;23.912;2023-02-18T10:19:21;96997.56;;;20.97;28.75
6615;BME280;3343;42.896;23.912;2023-02-18T10:21:50;97009.34;;;21.29;28.67
6615;BME280;3343;42.896;23.912;2023-02-18T10:24:25;97013.47;;;21.54;28.45
6615;BME280;3343;42.896;23.912;2023-02-18T10:26:52;97004.69;;;21.08;28.30
6615;BME280;3343;42.896;23.912;2023-02-18T10:29:20;97007.94;;;21.10;28.55
6615;BME280;3343;42.896;23.912;2023-02-18T10:31:51;97010.00;;;20.34;29.47
6615;BME280;3343;42.896;23.912;2023-02-18T10:34:25;97013.94;;;20.72;29.19
6615;BME280;3343;42.896;23.912;2023-02-18T10:37:03;97010.53;;;21.05;29.10
6615;BME280;3343;42.896;23.912;2023-02-18T10:42:32;97011.00;;;21.86;28.08
6615;BME280;3343;42.896;23.912;2023-02-18T10:45:15;97001.06;;;22.03;27.78
6615;BME280;3343;42.896;23.912;2023-02-18T10:47:51;97002.97;;;22.51;27.11
6615;BME280;3343;42.896;23.912;2023-02-18T10:50:28;97007.72;;;22.44;26.94
6615;BME280;3343;42.896;23.912;2023-02-18T10:53:01;96998.63;;;22.45;26.94
6615;BME280;3343;42.896;23.912;2023-02-18T10:55:39;96988.72;;;22.46;26.81
6615;BME280;3343;42.896;23.912;2023-02-18T10:58:27;96988.84;;;22.34;27.28
6615;BME280;3343;42.896;23.912;2023-02-18T11:00:56;96990.47;;;22.13;27.98
6615;BME280;3343;42.896;23.912;2023-02-18T11:03:25;96979.56;;;22.20;27.13
6615;BME280;3343;42.896;23.912;2023-02-18T11:05:54;96991.22;;;22.31;27.34
6615;BME280;3343;42.896;23.912;2023-02-18T11:08:26;96990.91;;;22.05;27.57
6615;BME280;3343;42.896;23.912;2023-02-18T11:10:53;96989.56;;;21.86;28.22
6615;BME280;3343;42.896;23.912;2023-02-18T11:13:26;96977.78;;;21.87;27.62
6615;BME280;3343;42.896;23.912;2023-02-18T11:15:59;96968.72;;;22.10;28.07
6615;BME280;3343;42.896;23.912;2023-02-18T11:18:31;96951.38;;;21.74;28.22
6615;BME280;3343;42.896;23.912;2023-02-18T11:21:02;96952.50;;;21.78;28.08
6615;BME280;3343;42.896;23.912;2023-02-18T11:23:31;96956.47;;;21.75;28.27
6615;BME280;3343;42.896;23.912;2023-02-18T11:26:00;96944.44;;;21.39;28.48
6615;BME280;3343;42.896;23.912;2023-02-18T11:28:54;96956.16;;;21.72;28.24
6615;BME280;3343;42.896;23.912;2023-02-18T11:31:25;96948.84;;;21.67;28.70
6615;BME280;3343;42.896;23.912;2023-02-18T11:33:55;96956.41;;;21.70;29.17
6615;BME280;3343;42.896;23.912;2023-02-18T11:36:26;96943.34;;;21.57;28.59
6615;BME280;3343;42.896;23.912;2023-02-18T11:38:57;96943.22;;;21.47;28.76
6615;BME280;3343;42.896;23.912;2023-02-18T11:41:33;96946.00;;;21.35;29.24
6615;BME280;3343;42.896;23.912;2023-02-18T11:44:02;96939.16;;;21.44;28.89
6615;BME280;3343;42.896;23.912;2023-02-18T11:46:30;96935.66;;;21.44;28.69
6615;BME280;3343;42.896;23.912;2023-02-18T11:49:10;96939.19;;;22.05;28.51
6615;BME280;3343;42.896;23.912;2023-02-18T11:51:47;96932.25;;;22.09;28.82
6615;BME280;3343;42.896;23.912;2023-02-18T11:54:23;96923.72;;;22.39;27.94
6615;BME280;3343;42.896;23.912;2023-02-18T11:56:55;96925.63;;;22.65;27.58
6615;BME280;3343;42.896;23.912;2023-02-18T11:59:23;96923.84;;;22.49;27.39
6615;BME280;3343;42.896;23.912;2023-02-18T12:01:53;96911.97;;;22.99;27.90
6615;BME280;3343;42.896;23.912;2023-02-18T12:04:27;96911.88;;;23.26;27.28
6615;BME280;3343;42.896;23.912;2023-02-18T12:07:05;96903.84;;;23.68;26.38
6615;BME280;3343;42.896;23.912;2023-02-18T12:09:41;96889.72;;;23.03;26.06
6615;BME280;3343;42.896;23.912;2023-02-18T12:12:13;96892.38;;;22.66;27.37
6615;BME280;3343;42.896;23.912;2023-02-18T12:14:42;96892.66;;;22.70;27.82
6615;BME280;3343;42.896;23.912;2023-02-18T12:20:26;96888.44;;;22.52;27.88
6615;BME280;3343;42.896;23.912;2023-02-18T12:23:02;96877.88;;;22.40;28.01
6615;BME280;3343;42.896;23.912;2023-02-18T12:25:39;96875.97;;;22.36;28.23
6615;BME280;3343;42.896;23.912;2023-02-18T12:28:23;96876.97;;;22.03;28.95
6615;BME280;3343;42.896;23.912;2023-02-18T12:31:05;96872.38;;;22.25;28.18
6615;BME280;3343;42.896;23.912;2023-02-18T12:33:46;96865.25;;;22.36;27.98
6615;BME280;3343;42.896;23.912;2023-02-18T12:36:24;96861.06;;;22.18;28.12
6615;BME280;3343;42.896;23.912;2023-02-18T12:39:01;96860.44;;;22.11;28.04
6615;BME280;3343;42.896;23.912;2023-02-18T12:41:39;96860.09;;;22.29;27.68
6615;BME280;3343;42.896;23.912;2023-02-18T12:44:19;96857.50;;;22.39;28.07
6615;BME280;3343;42.896;23.912;2023-02-18T12:47:03;96858.72;;;22.27;27.38
6615;BME280;3343;42.896;23.912;2023-02-18T12:49:46;96868.84;;;22.19;27.68
6615;BME280;3343;42.896;23.912;2023-02-18T12:52:28;96865.97;;;22.26;26.92
6615;BME280;3343;42.896;23.912;2023-02-18T12:58:12;96875.59;;;21.78;27.73
6615;BME280;3343;42.896;23.912;2023-02-18T13:00:52;96867.28;;;22.02;27.85
6615;BME280;3343;42.896;23.912;2023-02-18T13:06:59;96859.31;;;22.34;27.65
6615;BME280;3343;42.896;23.912;2023-02-18T13:09:39;96857.78;;;22.43;27.98
6615;BME280;3343;42.896;23.912;2023-02-18T13:12:14;96864.81;;;22.49;27.38
6615;BME280;3343;42.896;23.912;2023-02-18T13:14:47;96862.00;;;22.34;27.15
6615;BME280;3343;42.896;23.912;2023-02-18T13:17:17;96856.91;;;22.32;27.36
6615;BME280;3343;42.896;23.912;2023-02-18T13:19:49;96859.56;;;22.32;27.43
6615;BME280;3343;42.896;23.912;2023-02-18T13:22:19;96859.66;;;22.42;27.52
6615;BME280;3343;42.896;23.912;2023-02-18T13:24:50;96859.94;;;22.41;27.62
6615;BME280;3343;42.896;23.912;2023-02-18T13:27:24;96859.16;;;22.45;27.37
6615;BME280;3343;42.896;23.912;2023-02-18T13:30:08;96860.00;;;22.19;27.35
6615;BME280;3343;42.896;23.912;2023-02-18T13:32:50;96864.81;;;21.95;27.70
6615;BME280;3343;42.896;23.912;2023-02-18T13:35:24;96865.50;;;22.07;27.86
6615;BME280;3343;42.896;23.912;2023-02-18T13:38:14;96849.16;;;22.09;27.48
6615;BME280;3343;42.896;23.912;2023-02-18T13:40:46;96859.84;;;21.82;27.95
6615;BME280;3343;42.896;23.912;2023-02-18T13:43:28;96861.19;;;22.06;27.59
6615;BME280;3343;42.896;23.912;2023-02-18T13:46:04;96852.47;;;21.94;27.50
6615;BME280;3343;42.896;23.912;2023-02-18T13:48:40;96854.78;;;21.85;27.62
6615;BME280;3343;42.896;23.912;2023-02-18T13:51:10;96855.34;;;21.87;28.01
6615;BME280;3343;42.896;23.912;2023-02-18T13:53:38;96851.47;;;21.56;27.79
6615;BME280;3343;42.896;23.912;2023-02-18T13:56:08;96848.75;;;21.73;27.53
6615;BME280;3343;42.896;23.912;2023-02-18T13:58:40;96841.34;;;21.80;27.92